createdAt,value
2019-04-25T00:01:19.276Z,96582.89
2019-04-25T00:04:26.659Z,96590.17
2019-04-25T00:07:33.761Z,96583.66
2019-04-25T00:10:42.685Z,96574.81
2019-04-25T00:13:49.256Z,96570.02
2019-04-25T00:16:56.346Z,96570.31
2019-04-25T00:20:02.591Z,96576.52
2019-04-25T00:23:08.543Z,96588.95
2019-04-25T00:26:16.844Z,96601.28
2019-04-25T00:29:23.706Z,96619.52
2019-04-25T00:32:31.599Z,96625.92
2019-04-25T00:35:39.255Z,96628.83
2019-04-25T00:38:47.649Z,96647.73
2019-04-25T00:41:54.920Z,96644.89
2019-04-25T00:45:02.365Z,96655.51
2019-04-25T00:48:09.514Z,96661.78
2019-04-25T00:51:16.361Z,96661.78
2019-04-25T00:54:23.265Z,96664.81
2019-04-25T00:57:32.028Z,96666.23
2019-04-25T01:00:41.580Z,96667.63
2019-04-25T01:03:49.319Z,96662.03
2019-04-25T01:06:56.385Z,96679.11
2019-04-25T01:10:02.694Z,96668.00
2019-04-25T01:13:11.266Z,96665.29
2019-04-25T01:16:18.284Z,96659.20
2019-04-25T01:19:25.336Z,96672.92
2019-04-25T01:22:32.263Z,96647.53
2019-04-25T01:25:42.465Z,96656.60
2019-04-25T01:28:46.558Z,96649.23
2019-04-25T01:31:54.186Z,96644.38
2019-04-25T01:35:13.873Z,96641.87
2019-04-25T01:38:28.511Z,96639.97
2019-04-25T01:41:55.335Z,96645.73
2019-04-25T01:45:04.083Z,96645.73
2019-04-25T01:48:11.261Z,96658.09
2019-04-25T01:51:18.246Z,96651.51
2019-04-25T01:54:25.251Z,96661.59
2019-04-25T01:57:33.729Z,96663.40
2019-04-25T02:00:45.371Z,96669.06
2019-04-25T02:03:53.514Z,96684.55
2019-04-25T02:07:00.490Z,96690.65
2019-04-25T02:10:09.683Z,96691.53
2019-04-25T02:13:21.106Z,96696.38
2019-04-25T02:16:28.282Z,96704.72
2019-04-25T02:19:35.830Z,96706.28
2019-04-25T02:22:44.191Z,96712.03
2019-04-25T02:26:05.935Z,96705.83
2019-04-25T02:29:01.076Z,96705.83
2019-04-25T02:32:10.034Z,96725.84
2019-04-25T02:35:17.413Z,96725.01
2019-04-25T02:38:24.925Z,96721.08
2019-04-25T02:41:31.925Z,96721.08
2019-04-25T02:44:40.625Z,96719.68
2019-04-25T02:48:06.913Z,96727.52
2019-04-25T02:51:24.144Z,96727.52
2019-04-25T02:54:30.316Z,96730.52
2019-04-25T02:57:37.272Z,96725.66
2019-04-25T03:00:55.070Z,96728.05
2019-04-25T03:03:54.590Z,96728.55
2019-04-25T03:07:05.206Z,96733.70
2019-04-25T03:10:14.660Z,96729.50
2019-04-25T03:13:20.868Z,96729.50
2019-04-25T03:16:27.900Z,96727.31
2019-04-25T03:19:54.262Z,96724.39
2019-04-25T03:23:06.010Z,96721.21
2019-04-25T03:26:11.476Z,96721.26
2019-04-25T03:29:17.579Z,96721.26
2019-04-25T03:32:27.942Z,96742.88
2019-04-25T03:35:33.219Z,96744.38
2019-04-25T03:38:39.608Z,96743.37
2019-04-25T03:41:46.579Z,96742.02
2019-04-25T03:44:53.884Z,96753.75
2019-04-25T03:48:01.936Z,96753.75
2019-04-25T03:51:08.932Z,96750.02
2019-04-25T03:54:15.716Z,96762.92
2019-04-25T03:57:23.275Z,96766.02
2019-04-25T04:00:30.492Z,96770.33
2019-04-25T04:03:37.703Z,96775.52
2019-04-25T04:06:44.744Z,96775.52
2019-04-25T04:09:53.294Z,96783.86
2019-04-25T04:13:00.304Z,96789.91
2019-04-25T04:16:07.324Z,96797.64
2019-04-25T04:19:15.831Z,96789.81
2019-04-25T04:22:34.141Z,96798.74
2019-04-25T04:25:41.505Z,96805.37
2019-04-25T04:28:47.637Z,96806.80
2019-04-25T04:31:54.526Z,96811.63
2019-04-25T04:35:01.330Z,96807.28
2019-04-25T04:38:08.292Z,96812.06
2019-04-25T04:41:16.321Z,96818.60
2019-04-25T04:44:24.093Z,96817.09
2019-04-25T04:47:31.258Z,96817.09
2019-04-25T04:50:38.276Z,96845.34
2019-04-25T04:53:45.370Z,96840.55
2019-04-25T04:56:53.678Z,96830.34
2019-04-25T05:00:00.892Z,96832.38
2019-04-25T05:03:07.604Z,96839.30
2019-04-25T05:06:19.300Z,96853.71
2019-04-25T05:09:27.250Z,96853.71
2019-04-25T05:12:35.283Z,96847.42
2019-04-25T05:15:42.999Z,96855.75
2019-04-25T05:18:51.265Z,96857.69
2019-04-25T05:21:58.289Z,96855.69
2019-04-25T05:25:06.756Z,96855.53
2019-04-25T05:28:16.190Z,96851.94
2019-04-25T05:31:25.624Z,96854.77
2019-04-25T05:34:34.418Z,96860.18
2019-04-25T05:37:43.499Z,96863.77
2019-04-25T05:40:57.620Z,96866.86
2019-04-25T05:44:04.758Z,96858.38
2019-04-25T05:47:11.614Z,96858.38
2019-04-25T05:50:18.507Z,96867.69
2019-04-25T05:53:26.323Z,96866.45
2019-04-25T05:56:33.953Z,96866.45
2019-04-25T05:59:40.900Z,96867.73
2019-04-25T06:02:47.905Z,96879.02
2019-04-25T06:05:54.768Z,96879.47
2019-04-25T06:09:15.361Z,96875.53
2019-04-25T06:12:34.273Z,96878.98
2019-04-25T06:15:43.374Z,96851.80
2019-04-25T06:18:52.313Z,96851.80
2019-04-25T06:21:59.241Z,96862.41
2019-04-25T06:25:12.817Z,96865.40
2019-04-25T06:28:23.682Z,96867.63
2019-04-25T06:31:34.167Z,96869.52
2019-04-25T06:34:44.205Z,96871.81
2019-04-25T06:37:51.021Z,96871.88
2019-04-25T06:40:58.207Z,96866.78
2019-04-25T06:44:07.761Z,96860.66
2019-04-25T06:47:16.247Z,96860.66
2019-04-25T06:50:24.916Z,96863.50
2019-04-25T06:53:34.462Z,96848.17
2019-04-25T06:56:40.570Z,96852.17
2019-04-25T06:59:47.585Z,96839.45
2019-04-25T07:02:55.061Z,96843.30
2019-04-25T07:06:03.299Z,96843.30
2019-04-25T07:09:10.264Z,96841.34
2019-04-25T07:12:17.737Z,96836.23
2019-04-25T07:15:26.941Z,96834.77
2019-04-25T07:18:37.012Z,96835.85
2019-04-25T07:21:44.367Z,96823.92
2019-04-25T07:24:51.640Z,96815.73
2019-04-25T07:28:03.311Z,96814.23
2019-04-25T07:31:15.026Z,96815.06
2019-04-25T07:34:27.178Z,96815.06
2019-04-25T07:37:37.188Z,96814.70
2019-04-25T07:40:43.423Z,96819.33
2019-04-25T07:43:50.791Z,96819.11
2019-04-25T07:46:57.672Z,96825.12
2019-04-25T07:50:06.709Z,96827.75
2019-04-25T07:53:14.352Z,96825.17
2019-04-25T07:56:21.719Z,96819.23
2019-04-25T07:59:29.053Z,96819.23
2019-04-25T08:02:36.281Z,96815.80
2019-04-25T08:05:43.980Z,96805.10
2019-04-25T08:08:51.307Z,96814.60
2019-04-25T08:11:58.948Z,96805.75
2019-04-25T08:15:10.388Z,96808.53
2019-04-25T08:18:16.605Z,96805.49
2019-04-25T08:21:24.221Z,96799.48
2019-04-25T08:24:31.527Z,96800.55
2019-04-25T08:27:38.912Z,96801.94
2019-04-25T08:30:46.334Z,96795.38
2019-04-25T08:33:53.615Z,96792.55
2019-04-25T08:37:01.091Z,96794.77
2019-04-25T08:40:08.298Z,96800.89
2019-04-25T08:43:15.329Z,96799.20
2019-04-25T08:46:23.487Z,96809.97
2019-04-25T08:49:34.917Z,96809.97
2019-04-25T08:52:44.323Z,96809.59
2019-04-25T08:56:01.272Z,96814.79
2019-04-25T08:59:09.765Z,96814.03
2019-04-25T09:02:16.421Z,96821.38
2019-04-25T09:05:25.388Z,96809.15
2019-04-25T09:08:33.031Z,96811.91
2019-04-25T09:11:41.415Z,96809.53
2019-04-25T09:14:48.557Z,96788.89
2019-04-25T09:17:55.417Z,96792.94
2019-04-25T09:21:01.842Z,96792.94
2019-04-25T09:24:08.752Z,96795.70
2019-04-25T09:27:15.652Z,96793.72
2019-04-25T09:30:24.083Z,96773.62
2019-04-25T09:33:31.298Z,96773.62
2019-04-25T09:36:38.617Z,96790.38
2019-04-25T09:40:04.239Z,96785.65
2019-04-25T09:43:11.299Z,96789.45
2019-04-25T09:46:19.724Z,96789.44
2019-04-25T09:49:28.558Z,96786.23
2019-04-25T09:52:36.113Z,96791.98
2019-04-25T09:55:54.249Z,96791.98
2019-04-25T09:59:03.744Z,96782.67
2019-04-25T10:02:11.262Z,96782.67
2019-04-25T10:05:18.891Z,96782.89
2019-04-25T10:08:25.760Z,96773.94
2019-04-25T10:11:33.641Z,96770.05
2019-04-25T10:14:54.913Z,96769.34
2019-04-25T10:18:02.041Z,96771.19
2019-04-25T10:21:11.488Z,96757.48
2019-04-25T10:24:18.745Z,96772.17
2019-04-25T10:27:25.958Z,96751.84
2019-04-25T10:30:34.244Z,96752.69
2019-04-25T10:33:45.302Z,96751.12
2019-04-25T10:36:50.523Z,96750.55
2019-04-25T10:39:57.506Z,96732.66
2019-04-25T10:43:05.385Z,96730.61
2019-04-25T10:46:14.168Z,96730.61
2019-04-25T10:49:21.272Z,96723.94
2019-04-25T10:52:28.281Z,96741.41
2019-04-25T10:55:35.750Z,96717.52
2019-04-25T10:58:44.392Z,96703.22
2019-04-25T11:01:51.389Z,96697.27
2019-04-25T11:05:06.174Z,96699.62
2019-04-25T11:08:13.738Z,96704.61
2019-04-25T11:11:21.526Z,96709.87
2019-04-25T11:14:28.656Z,96709.23
2019-04-25T11:17:35.680Z,96709.23
2019-04-25T11:20:43.103Z,96692.19
2019-04-25T11:23:51.295Z,96686.09
2019-04-25T11:26:58.284Z,96682.68
2019-04-25T11:30:10.902Z,96686.15
2019-04-25T11:33:14.566Z,96682.46
2019-04-25T11:36:21.478Z,96676.52
2019-04-25T11:39:46.068Z,96655.04
2019-04-25T11:42:54.453Z,96655.04
2019-04-25T11:46:01.241Z,96669.65
2019-04-25T11:49:09.421Z,96666.47
2019-04-25T11:52:26.958Z,96658.91
2019-04-25T11:55:25.670Z,96658.91
2019-04-25T11:58:32.572Z,96648.52
2019-04-25T12:01:39.739Z,96626.03
2019-04-25T12:04:47.789Z,96632.11
2019-04-25T12:07:55.274Z,96638.66
2019-04-25T12:11:02.401Z,96631.84
2019-04-25T12:14:09.911Z,96624.26
2019-04-25T12:17:16.942Z,96607.42
2019-04-25T12:20:23.899Z,96621.41
2019-04-25T12:23:30.853Z,96626.02
2019-04-25T12:26:38.239Z,96618.86
2019-04-25T12:29:46.004Z,96613.72
2019-04-25T12:32:55.242Z,96610.37
2019-04-25T12:36:02.265Z,96604.44
2019-04-25T12:39:10.248Z,96610.00
2019-04-25T12:42:17.406Z,96619.34
2019-04-25T12:45:38.022Z,96599.52
2019-04-25T12:48:46.051Z,96589.63
2019-04-25T12:51:53.565Z,96576.77
2019-04-25T12:55:01.820Z,96586.03
2019-04-25T12:58:09.281Z,96586.03
2019-04-25T13:01:16.706Z,96579.31
2019-04-25T13:04:24.795Z,96561.25
2019-04-25T13:07:31.738Z,96561.25
2019-04-25T13:10:38.876Z,96569.80
2019-04-25T13:13:45.796Z,96583.48
2019-04-25T13:16:52.630Z,96583.48
2019-04-25T13:19:59.538Z,96548.75
2019-04-25T13:23:07.562Z,96561.84
2019-04-25T13:26:16.307Z,96561.84
2019-04-25T13:29:43.336Z,96479.58
2019-04-25T13:32:58.310Z,96564.08
2019-04-25T13:36:06.269Z,96568.39
2019-04-25T13:39:16.163Z,96573.73
2019-04-25T13:42:24.705Z,96574.36
2019-04-25T13:45:31.974Z,96574.36
2019-04-25T13:48:39.039Z,96566.38
2019-04-25T13:51:47.675Z,96566.38
2019-04-25T13:54:54.631Z,96551.45
2019-04-25T13:58:01.585Z,96549.17
2019-04-25T14:01:15.149Z,96542.63
2019-04-25T14:04:21.131Z,96531.70
2019-04-25T14:07:29.729Z,96531.70
2019-04-25T14:10:36.716Z,96517.16
2019-04-25T14:13:43.597Z,96526.58
2019-04-25T14:17:07.087Z,96521.12
2019-04-25T14:20:16.047Z,96521.12
2019-04-25T14:23:24.426Z,96537.39
2019-04-25T14:26:31.886Z,96497.77
2019-04-25T14:29:38.897Z,96495.95
2019-04-25T14:32:46.200Z,96495.95
2019-04-25T14:35:54.809Z,96509.61
2019-04-25T14:39:02.043Z,96502.24
2019-04-25T14:42:10.746Z,96499.06
2019-04-25T14:45:19.028Z,96490.98
2019-04-25T14:48:25.957Z,96483.99
2019-04-25T14:51:35.991Z,96491.99
2019-04-25T14:54:43.289Z,96494.55
2019-04-25T14:57:50.250Z,96493.44
2019-04-25T15:00:57.569Z,96496.37
2019-04-25T15:04:04.521Z,96489.75
2019-04-25T15:07:11.700Z,96483.47
2019-04-25T15:10:18.787Z,96483.47
2019-04-25T15:13:25.842Z,96483.00
2019-04-25T15:16:33.468Z,96476.95
2019-04-25T15:19:42.145Z,96472.77
2019-04-25T15:22:49.098Z,96482.92
2019-04-25T15:25:56.242Z,96463.09
2019-04-25T15:29:03.256Z,96463.09
2019-04-25T15:32:13.650Z,96483.09
2019-04-25T15:35:22.245Z,96471.22
2019-04-25T15:38:31.419Z,96479.47
2019-04-25T15:41:56.566Z,96480.33
2019-04-25T15:45:05.705Z,96465.65
2019-04-25T15:48:15.650Z,96465.65
2019-04-25T15:51:22.671Z,96474.22
2019-04-25T15:54:29.655Z,96474.16
2019-04-25T15:57:36.657Z,96471.20
2019-04-25T16:00:44.268Z,96479.42
2019-04-25T16:03:52.580Z,96482.81
2019-04-25T16:07:00.298Z,96480.56
2019-04-25T16:10:08.508Z,96482.73
2019-04-25T16:13:17.470Z,96483.78
2019-04-25T16:16:24.420Z,96485.34
2019-04-25T16:19:31.601Z,96480.53
2019-04-25T16:22:41.302Z,96481.61
2019-04-25T16:25:48.570Z,96471.63
2019-04-25T16:28:55.410Z,96473.50
2019-04-25T16:32:03.311Z,96473.50
2019-04-25T16:35:10.673Z,96469.34
2019-04-25T16:38:20.741Z,96472.52
2019-04-25T16:41:28.665Z,96469.98
2019-04-25T16:44:36.275Z,96463.98
2019-04-25T16:47:43.770Z,96469.85
2019-04-25T16:50:51.575Z,96479.52
2019-04-25T16:53:58.665Z,96481.20
2019-04-25T16:57:07.253Z,96481.80
2019-04-25T17:00:16.452Z,96474.02
2019-04-25T17:03:24.665Z,96467.89
2019-04-25T17:06:32.312Z,96460.96
2019-04-25T17:09:39.463Z,96463.48
2019-04-25T17:12:45.822Z,96463.48
2019-04-25T17:16:06.492Z,96459.88
2019-04-25T17:19:15.266Z,96449.17
2019-04-25T17:22:22.627Z,96447.46
2019-04-25T17:25:30.115Z,96444.02
2019-04-25T17:28:39.928Z,96444.02
2019-04-25T17:32:05.063Z,96451.16
2019-04-25T17:35:29.653Z,96448.33
2019-04-25T17:38:44.930Z,96449.05
2019-04-25T17:41:51.748Z,96448.84
2019-04-25T17:45:00.262Z,96450.98
2019-04-25T17:48:07.298Z,96459.35
2019-04-25T17:51:14.539Z,96459.80
2019-04-25T17:54:21.506Z,96459.61
2019-04-25T17:57:30.303Z,96465.59
2019-04-25T18:00:39.630Z,96465.59
2019-04-25T18:03:47.309Z,96460.98
2019-04-25T18:06:56.081Z,96461.36
2019-04-25T18:10:03.098Z,96459.45
2019-04-25T18:13:11.855Z,96458.78
2019-04-25T18:16:19.234Z,96460.41
2019-04-25T18:19:40.523Z,96457.84
2019-04-25T18:22:47.464Z,96466.59
2019-04-25T18:26:12.252Z,96460.12
2019-04-25T18:29:27.963Z,96469.12
2019-04-25T18:32:37.073Z,96472.40
2019-04-25T18:35:45.925Z,96466.31
2019-04-25T18:38:54.440Z,96468.13
2019-04-25T18:42:08.243Z,96473.78
2019-04-25T18:45:16.525Z,96479.46
2019-04-25T18:48:23.792Z,96469.79
2019-04-25T18:51:31.588Z,96471.41
2019-04-25T18:54:47.421Z,96471.41
2019-04-25T18:57:58.718Z,96493.31
2019-04-25T19:01:17.287Z,96491.45
2019-04-25T19:04:42.333Z,96488.36
2019-04-25T19:07:49.127Z,96486.45
2019-04-25T19:10:56.325Z,96489.64
2019-04-25T19:14:03.433Z,96489.45
2019-04-25T19:17:11.291Z,96489.44
2019-04-25T19:20:18.304Z,96500.63
2019-04-25T19:23:25.282Z,96495.51
2019-04-25T19:26:32.440Z,96491.75
2019-04-25T19:29:41.758Z,96493.88
2019-04-25T19:32:49.168Z,96486.73
2019-04-25T19:36:00.592Z,96494.83
2019-04-25T19:39:08.350Z,96493.01
2019-04-25T19:42:21.405Z,96493.01
2019-04-25T19:45:28.389Z,96485.11
2019-04-25T19:48:34.523Z,96485.45
2019-04-25T19:51:41.812Z,96481.84
2019-04-25T19:54:49.518Z,96481.75
2019-04-25T19:57:59.779Z,96466.47
2019-04-25T20:01:08.213Z,96466.47
2019-04-25T20:04:20.294Z,96493.05
2019-04-25T20:07:46.620Z,96490.62
2019-04-25T20:10:59.654Z,96493.89
2019-04-25T20:14:08.506Z,96487.56
2019-04-25T20:17:15.561Z,96492.16
2019-04-25T20:20:24.776Z,96467.97
2019-04-25T20:23:32.283Z,96467.97
2019-04-25T20:26:39.361Z,96480.15
2019-04-25T20:29:46.531Z,96482.95
2019-04-25T20:32:55.630Z,96468.44
2019-04-25T20:36:03.062Z,96468.44
2019-04-25T20:39:10.334Z,96482.43
2019-04-25T20:42:18.329Z,96477.52
2019-04-25T20:45:25.302Z,96474.16
2019-04-25T20:48:32.662Z,96473.80
2019-04-25T20:51:40.570Z,96486.42
2019-04-25T20:54:48.909Z,96483.12
2019-04-25T20:57:57.898Z,96471.30
2019-04-25T21:01:05.277Z,96471.30
2019-04-25T21:04:13.579Z,96485.29
2019-04-25T21:07:22.265Z,96483.10
2019-04-25T21:10:29.661Z,96483.39
2019-04-25T21:13:55.920Z,96483.39
2019-04-25T21:17:04.791Z,96480.48
2019-04-25T21:20:14.563Z,96471.70
2019-04-25T21:23:21.635Z,96463.42
2019-04-25T21:26:28.595Z,96463.08
2019-04-25T21:29:35.588Z,96463.08
2019-04-25T21:32:53.443Z,96442.75
2019-04-25T21:36:01.559Z,96442.75
2019-04-25T21:39:10.738Z,96458.28
2019-04-25T21:42:24.256Z,96455.42
2019-04-25T21:45:31.987Z,96453.20
2019-04-25T21:48:42.361Z,96453.20
2019-04-25T21:51:52.592Z,96452.53
2019-04-25T21:54:59.749Z,96453.70
2019-04-25T21:58:09.308Z,96443.27
2019-04-25T22:01:18.327Z,96434.94
2019-04-25T22:04:38.209Z,96434.94
2019-04-25T22:07:35.728Z,96411.77
2019-04-25T22:10:43.597Z,96411.77
2019-04-25T22:13:50.456Z,96436.97
2019-04-25T22:16:58.269Z,96436.97
2019-04-25T22:20:07.292Z,96431.93
2019-04-25T22:23:13.537Z,96435.19
2019-04-25T22:26:20.748Z,96440.83
2019-04-25T22:29:28.298Z,96440.83
2019-04-25T22:32:45.533Z,96441.41
2019-04-25T22:35:54.105Z,96430.80
2019-04-25T22:39:11.215Z,96435.11
2019-04-25T22:42:18.686Z,96434.03
2019-04-25T22:45:25.499Z,96436.92
2019-04-25T22:48:34.272Z,96442.55
2019-04-25T22:51:41.266Z,96442.91
2019-04-25T22:54:48.718Z,96445.32
2019-04-25T22:57:56.251Z,96444.30
2019-04-25T23:01:05.081Z,96446.50
2019-04-25T23:04:11.766Z,96446.36
2019-04-25T23:07:20.927Z,96451.26
2019-04-25T23:10:28.254Z,96454.45
2019-04-25T23:13:35.292Z,96454.11
2019-04-25T23:16:42.492Z,96456.19
2019-04-25T23:19:49.385Z,96459.56
2019-04-25T23:22:55.562Z,96459.56
2019-04-25T23:26:06.940Z,96466.04
2019-04-25T23:29:15.637Z,96460.09
2019-04-25T23:32:23.137Z,96469.33
2019-04-25T23:35:31.020Z,96469.33
2019-04-25T23:38:38.777Z,96463.45
2019-04-25T23:41:46.133Z,96458.77
2019-04-25T23:44:53.421Z,96458.88
2019-04-25T23:48:00.291Z,96461.50
2019-04-25T23:51:08.767Z,96465.92
2019-04-25T23:54:17.168Z,96477.16
2019-04-25T23:57:24.286Z,96475.98
